Mhead, Massachusetts
Current Conditions -  °F | °C
As of 2:53 AM on Sunday 23 Nov 2014 (Local Time) from KBVY Reporting Station
Overcast Overcast  
Wind Chill: 38°   Ceiling: 11000
Heat Index: 43°   Visibility: 10mi
Dew Point: 22°   Wind: 9mph
Humidity: 43%   Direction: 250°WSW
Pressure: 30.05"   Gusts: NA
Location:  42.4989°N, 70.8636°W
Report Text: KBVY 230753Z AUTO 25008KT 10SM FEW090 OVC110 06/M06 A3005 RMK AO2 SLP174 T00611056
Loading
Personal Weather Stations






























Interactive Weather Map New forecast layout! Learn more

10-Day Weather Forecast

Advertisements
Track Severe Weather on mobile